createdAt,value
2022-12-31T00:01:33.734Z,-0.34
2022-12-31T00:04:05.926Z,-0.31
2022-12-31T00:06:38.120Z,-0.27
2022-12-31T00:09:11.526Z,-0.22
2022-12-31T00:11:43.107Z,-0.14
2022-12-31T00:14:14.699Z,-0.08
2022-12-31T00:16:46.479Z,-0.03
2022-12-31T00:19:18.088Z,0.01
2022-12-31T00:21:49.818Z,0.06
2022-12-31T00:24:21.399Z,0.10
2022-12-31T00:26:52.984Z,0.13
2022-12-31T00:29:24.730Z,0.14
2022-12-31T00:31:56.572Z,0.14
2022-12-31T00:34:28.293Z,0.13
2022-12-31T00:36:59.927Z,0.10
2022-12-31T00:39:31.746Z,0.07
2022-12-31T00:42:03.511Z,0.04
2022-12-31T00:44:35.108Z,-0.01
2022-12-31T00:47:06.993Z,-0.06
2022-12-31T00:49:38.862Z,-0.09
2022-12-31T00:52:13.712Z,-0.11
2022-12-31T00:54:45.283Z,-0.13
2022-12-31T00:57:17.206Z,-0.12
2022-12-31T00:59:48.843Z,-0.08
2022-12-31T01:02:20.578Z,-0.01
2022-12-31T01:04:53.026Z,0.06
2022-12-31T01:07:24.615Z,0.10
2022-12-31T01:09:56.171Z,0.17
2022-12-31T01:12:28.302Z,0.23
2022-12-31T01:14:59.981Z,0.28
2022-12-31T01:17:31.601Z,0.33
2022-12-31T01:20:03.237Z,0.38
2022-12-31T01:22:34.942Z,0.43
2022-12-31T01:25:08.119Z,0.48
2022-12-31T01:27:39.705Z,0.50
2022-12-31T01:30:13.455Z,0.52
2022-12-31T01:32:45.036Z,0.53
2022-12-31T01:35:16.959Z,0.53
2022-12-31T01:37:48.719Z,0.50
2022-12-31T01:40:20.681Z,0.41
2022-12-31T01:42:59.752Z,0.33
2022-12-31T01:45:31.714Z,0.29
2022-12-31T01:48:03.696Z,0.23
2022-12-31T01:50:38.936Z,0.22
2022-12-31T01:53:12.053Z,0.28
2022-12-31T01:55:49.509Z,0.36
2022-12-31T01:58:24.459Z,0.46
2022-12-31T02:00:58.751Z,0.56
2022-12-31T02:03:31.936Z,0.68
2022-12-31T02:06:10.046Z,0.75
2022-12-31T02:08:42.588Z,0.80
2022-12-31T02:11:27.619Z,0.82
2022-12-31T02:14:02.952Z,0.90
2022-12-31T02:16:41.433Z,0.97
2022-12-31T02:19:43.899Z,1.04
2022-12-31T02:22:23.784Z,1.11
2022-12-31T02:25:19.336Z,1.15
2022-12-31T02:28:04.157Z,1.13
2022-12-31T02:30:37.021Z,1.09
2022-12-31T02:33:15.057Z,1.02
2022-12-31T02:35:52.624Z,0.89
2022-12-31T02:38:30.015Z,0.80
2022-12-31T02:41:02.938Z,0.76
2022-12-31T02:43:34.473Z,0.82
2022-12-31T02:46:15.166Z,0.89
2022-12-31T02:48:53.677Z,0.95
2022-12-31T02:51:40.291Z,1.01
2022-12-31T02:54:33.189Z,1.07
2022-12-31T02:57:12.320Z,1.09
2022-12-31T03:00:09.423Z,1.12
2022-12-31T03:02:43.973Z,1.16
2022-12-31T03:05:18.374Z,1.19
2022-12-31T03:07:50.442Z,1.19
2022-12-31T03:10:22.917Z,1.21
2022-12-31T03:12:54.665Z,1.25
2022-12-31T03:15:28.594Z,1.32
2022-12-31T03:18:05.204Z,1.39
2022-12-31T03:20:57.153Z,1.47
2022-12-31T03:23:31.559Z,1.55
2022-12-31T03:26:04.676Z,1.63
2022-12-31T03:28:36.587Z,1.70
2022-12-31T03:31:09.086Z,1.74
2022-12-31T03:33:42.661Z,1.82
2022-12-31T03:36:16.720Z,1.88
2022-12-31T03:38:52.548Z,1.99
2022-12-31T03:41:24.664Z,2.14
2022-12-31T03:43:56.243Z,2.27
2022-12-31T03:46:27.968Z,2.38
2022-12-31T03:48:59.762Z,2.52
2022-12-31T03:51:31.358Z,2.64
2022-12-31T03:54:02.991Z,2.77
2022-12-31T03:56:35.646Z,2.89
2022-12-31T03:59:07.364Z,3.03
2022-12-31T04:01:39.328Z,3.14
2022-12-31T04:04:11.270Z,3.22
2022-12-31T04:06:42.921Z,3.32
2022-12-31T04:09:14.559Z,3.46
2022-12-31T04:11:46.223Z,3.60
2022-12-31T04:14:18.128Z,3.71
2022-12-31T04:16:49.810Z,3.82
2022-12-31T04:19:21.870Z,3.97
2022-12-31T04:21:53.916Z,4.11
2022-12-31T04:24:26.035Z,4.31
2022-12-31T04:27:02.117Z,4.48
2022-12-31T04:29:37.544Z,4.68
2022-12-31T04:32:10.313Z,4.84
2022-12-31T04:34:42.098Z,4.99
2022-12-31T04:37:13.662Z,5.14
2022-12-31T04:39:45.279Z,5.28
2022-12-31T04:42:16.873Z,5.43
2022-12-31T04:44:48.474Z,5.52
2022-12-31T04:47:23.677Z,5.60
2022-12-31T04:49:55.726Z,5.67
2022-12-31T04:52:27.410Z,5.71
2022-12-31T04:54:59.134Z,5.79
2022-12-31T04:57:30.760Z,5.87
2022-12-31T05:00:02.368Z,5.94
2022-12-31T05:02:34.206Z,6.04
2022-12-31T05:05:07.031Z,6.15
2022-12-31T05:07:38.772Z,6.23
2022-12-31T05:10:11.188Z,6.30
2022-12-31T05:12:43.007Z,6.36
2022-12-31T05:15:14.827Z,6.42
2022-12-31T05:17:46.386Z,6.42
2022-12-31T05:20:18.041Z,6.44
2022-12-31T05:22:49.796Z,6.47
2022-12-31T05:25:21.569Z,6.49
2022-12-31T05:27:53.489Z,6.55
2022-12-31T05:30:26.502Z,6.60
2022-12-31T05:32:58.313Z,6.67
2022-12-31T05:35:30.004Z,6.70
2022-12-31T05:38:02.095Z,6.73
2022-12-31T05:40:34.359Z,6.74
2022-12-31T05:43:06.009Z,6.72
2022-12-31T05:45:37.629Z,6.72
2022-12-31T05:48:09.828Z,6.73
2022-12-31T05:50:41.441Z,6.77
2022-12-31T05:53:13.360Z,6.84
2022-12-31T05:55:45.715Z,6.87
2022-12-31T05:58:18.187Z,6.94
2022-12-31T06:00:49.786Z,6.97
2022-12-31T06:03:21.695Z,6.95
2022-12-31T06:05:53.604Z,6.92
2022-12-31T06:08:25.386Z,6.89
2022-12-31T06:10:56.954Z,6.91
2022-12-31T06:13:28.768Z,6.97
2022-12-31T06:16:05.620Z,7.02
2022-12-31T06:18:37.486Z,7.10
2022-12-31T06:21:09.545Z,7.16
2022-12-31T06:23:42.789Z,7.22
2022-12-31T06:26:14.732Z,7.28
2022-12-31T06:28:46.806Z,7.31
2022-12-31T06:31:18.557Z,7.31
2022-12-31T06:33:50.154Z,7.30
2022-12-31T06:36:22.848Z,7.35
2022-12-31T06:38:55.216Z,7.41
2022-12-31T06:41:26.849Z,7.43
2022-12-31T06:43:58.439Z,7.43
2022-12-31T06:46:30.278Z,7.40
2022-12-31T06:49:01.971Z,7.41
2022-12-31T06:51:33.621Z,7.43
2022-12-31T06:54:05.440Z,7.47
2022-12-31T06:56:38.350Z,7.48
2022-12-31T06:59:23.915Z,7.52
2022-12-31T07:02:08.708Z,7.61
2022-12-31T07:05:04.544Z,7.72
2022-12-31T07:07:45.626Z,7.83
2022-12-31T07:10:30.047Z,7.91
2022-12-31T07:13:23.598Z,7.98
2022-12-31T07:16:20.451Z,8.04
2022-12-31T07:18:59.109Z,8.07
2022-12-31T07:21:36.797Z,8.08
2022-12-31T07:24:12.075Z,8.11
2022-12-31T07:26:57.277Z,8.13
2022-12-31T07:29:39.978Z,8.19
2022-12-31T07:32:24.293Z,8.27
2022-12-31T07:35:03.602Z,8.35
2022-12-31T07:37:46.554Z,8.36
2022-12-31T07:40:25.346Z,8.34
2022-12-31T07:43:09.833Z,8.31
2022-12-31T07:45:47.912Z,8.30
2022-12-31T07:48:25.933Z,8.35
2022-12-31T07:50:59.467Z,8.37
2022-12-31T07:53:32.336Z,8.38
2022-12-31T07:56:05.928Z,8.38
2022-12-31T07:58:48.759Z,8.38
2022-12-31T08:01:34.691Z,8.42
2022-12-31T08:04:16.986Z,8.43
2022-12-31T08:06:59.438Z,8.44
2022-12-31T08:09:43.678Z,8.45
2022-12-31T08:12:15.886Z,8.48
2022-12-31T08:14:49.329Z,8.53
2022-12-31T08:17:22.592Z,8.61
2022-12-31T08:19:55.274Z,8.67
2022-12-31T08:22:46.535Z,8.70
2022-12-31T08:25:27.114Z,8.76
2022-12-31T08:28:11.427Z,8.84
2022-12-31T08:30:59.235Z,8.91
2022-12-31T08:33:36.683Z,8.96
2022-12-31T08:36:21.457Z,9.03
2022-12-31T08:38:59.113Z,9.16
2022-12-31T08:41:42.261Z,9.30
2022-12-31T08:44:24.703Z,9.51
2022-12-31T08:47:04.762Z,9.64
2022-12-31T08:49:38.067Z,9.69
2022-12-31T08:52:17.022Z,9.71
2022-12-31T08:54:49.995Z,9.66
2022-12-31T08:57:31.157Z,9.58
2022-12-31T09:00:08.373Z,9.51
2022-12-31T09:03:11.731Z,9.46
2022-12-31T09:05:54.540Z,9.47
2022-12-31T09:08:36.067Z,9.48
2022-12-31T09:11:20.801Z,9.54
2022-12-31T09:14:09.188Z,9.68
2022-12-31T09:16:48.653Z,9.79
2022-12-31T09:19:20.360Z,9.83
2022-12-31T09:21:53.154Z,9.86
2022-12-31T09:24:25.739Z,9.90
2022-12-31T09:27:05.882Z,9.93
2022-12-31T09:29:53.761Z,9.98
2022-12-31T09:32:38.751Z,10.08
2022-12-31T09:35:20.675Z,10.19
2022-12-31T09:37:56.557Z,10.33
2022-12-31T09:40:51.841Z,10.48
2022-12-31T09:44:01.219Z,10.54
2022-12-31T09:47:02.214Z,10.59
2022-12-31T09:50:11.185Z,10.60
2022-12-31T09:52:59.671Z,10.56
2022-12-31T09:55:37.965Z,10.52
2022-12-31T09:58:25.723Z,10.50
2022-12-31T10:01:04.982Z,10.52
2022-12-31T10:03:53.116Z,10.53
2022-12-31T10:06:32.043Z,10.56
2022-12-31T10:09:19.882Z,10.58
2022-12-31T10:12:34.240Z,10.61
2022-12-31T10:15:36.959Z,10.67
2022-12-31T10:18:19.143Z,10.72
2022-12-31T10:21:12.073Z,10.84
2022-12-31T10:24:01.141Z,11.03
2022-12-31T10:26:45.351Z,11.13
2022-12-31T10:29:34.476Z,11.19
2022-12-31T10:32:23.739Z,11.32
2022-12-31T10:35:12.705Z,11.38
2022-12-31T10:37:51.182Z,11.36
2022-12-31T10:40:33.819Z,11.32
2022-12-31T10:43:53.007Z,11.30
2022-12-31T10:46:56.933Z,11.24
2022-12-31T10:50:05.044Z,11.23
2022-12-31T10:53:22.363Z,11.25
2022-12-31T10:56:21.690Z,11.34
2022-12-31T10:59:29.878Z,11.39
2022-12-31T11:02:20.211Z,11.44
2022-12-31T11:05:38.238Z,11.48
2022-12-31T11:08:33.306Z,11.55
2022-12-31T11:11:19.178Z,11.62
2022-12-31T11:14:21.755Z,11.67
2022-12-31T11:17:06.993Z,11.73
2022-12-31T11:19:48.021Z,11.80
2022-12-31T11:22:41.835Z,11.85
2022-12-31T11:25:41.228Z,11.90
2022-12-31T11:28:41.525Z,11.94
2022-12-31T11:31:29.441Z,11.94
2022-12-31T11:34:26.200Z,11.93
2022-12-31T11:37:17.712Z,11.98
2022-12-31T11:39:59.299Z,12.02
2022-12-31T11:42:42.699Z,12.05
2022-12-31T11:45:27.861Z,12.10
2022-12-31T11:48:30.171Z,12.14
2022-12-31T11:51:26.911Z,12.19
2022-12-31T11:54:30.152Z,12.29
2022-12-31T11:57:14.391Z,12.37
2022-12-31T11:59:46.271Z,12.39
2022-12-31T12:02:28.540Z,12.40
2022-12-31T12:05:10.689Z,12.47
2022-12-31T12:07:43.319Z,12.55
2022-12-31T12:10:33.542Z,12.59
2022-12-31T12:13:20.367Z,12.63
2022-12-31T12:15:55.390Z,12.64
2022-12-31T12:18:42.934Z,12.65
2022-12-31T12:21:17.896Z,12.61
2022-12-31T12:23:59.821Z,12.56
2022-12-31T12:26:37.176Z,12.51
2022-12-31T12:29:20.620Z,12.48
2022-12-31T12:31:59.688Z,12.44
2022-12-31T12:34:33.332Z,12.42
2022-12-31T12:37:08.894Z,12.41
2022-12-31T12:39:41.319Z,12.38
2022-12-31T12:42:16.355Z,12.35
2022-12-31T12:44:47.934Z,12.34
2022-12-31T12:47:21.121Z,12.32
2022-12-31T12:49:56.459Z,12.31
2022-12-31T12:52:46.854Z,12.31
2022-12-31T12:55:26.714Z,12.32
2022-12-31T12:58:08.146Z,12.31
2022-12-31T13:00:49.851Z,12.28
2022-12-31T13:03:36.975Z,12.21
2022-12-31T13:06:26.627Z,12.16
2022-12-31T13:09:08.476Z,12.15
2022-12-31T13:11:47.354Z,12.14
2022-12-31T13:14:31.977Z,12.13
2022-12-31T13:17:19.883Z,12.12
2022-12-31T13:19:56.699Z,12.07
2022-12-31T13:22:35.282Z,12.04
2022-12-31T13:25:21.891Z,12.03
2022-12-31T13:27:56.501Z,12.03
2022-12-31T13:30:33.426Z,12.01
2022-12-31T13:33:12.690Z,11.99
2022-12-31T13:35:47.871Z,11.98
2022-12-31T13:38:22.639Z,11.95
2022-12-31T13:41:02.978Z,11.92
2022-12-31T13:43:48.816Z,11.90
2022-12-31T13:46:29.420Z,11.87
2022-12-31T13:49:04.137Z,11.86
2022-12-31T13:51:45.488Z,11.80
2022-12-31T13:54:30.002Z,11.74
2022-12-31T13:57:06.616Z,11.68
2022-12-31T13:59:42.821Z,11.65
2022-12-31T14:02:33.691Z,11.61
2022-12-31T14:05:15.043Z,11.61
2022-12-31T14:07:53.468Z,11.61
2022-12-31T14:10:36.259Z,11.60
2022-12-31T14:13:20.740Z,11.59
2022-12-31T14:16:13.055Z,11.56
2022-12-31T14:18:51.554Z,11.50
2022-12-31T14:21:29.688Z,11.44
2022-12-31T14:24:07.905Z,11.39
2022-12-31T14:26:43.926Z,11.34
2022-12-31T14:29:30.582Z,11.29
2022-12-31T14:32:28.318Z,11.30
2022-12-31T14:35:14.749Z,11.29
2022-12-31T14:37:58.040Z,11.29
2022-12-31T14:40:37.823Z,11.28
2022-12-31T14:43:19.787Z,11.25
2022-12-31T14:46:04.903Z,11.23
2022-12-31T14:48:47.219Z,11.17
2022-12-31T14:51:19.189Z,11.10
2022-12-31T14:53:57.796Z,11.05
2022-12-31T14:56:34.216Z,11.01
2022-12-31T14:59:19.402Z,11.01
2022-12-31T15:01:51.014Z,11.05
2022-12-31T15:04:34.607Z,11.11
2022-12-31T15:07:19.001Z,11.15
2022-12-31T15:10:05.258Z,11.12
2022-12-31T15:12:55.769Z,11.08
2022-12-31T15:15:44.647Z,11.06
2022-12-31T15:18:36.542Z,11.06
2022-12-31T15:21:38.024Z,11.11
2022-12-31T15:24:22.699Z,11.16
2022-12-31T15:26:57.640Z,11.14
2022-12-31T15:29:33.165Z,11.14
2022-12-31T15:32:08.980Z,11.13
2022-12-31T15:34:40.670Z,11.15
2022-12-31T15:37:30.979Z,11.20
2022-12-31T15:40:21.036Z,11.21
2022-12-31T15:42:56.626Z,11.19
2022-12-31T15:45:33.743Z,11.24
2022-12-31T15:48:10.157Z,11.35
2022-12-31T15:50:43.673Z,11.34
2022-12-31T15:53:28.298Z,11.33
2022-12-31T15:56:03.119Z,11.35
2022-12-31T15:58:37.591Z,11.33
2022-12-31T16:01:15.948Z,11.31
2022-12-31T16:03:50.968Z,11.36
2022-12-31T16:06:22.739Z,11.37
2022-12-31T16:08:55.607Z,11.40
2022-12-31T16:11:30.403Z,11.44
2022-12-31T16:14:02.050Z,11.43
2022-12-31T16:16:36.084Z,11.41
2022-12-31T16:19:28.655Z,11.42
2022-12-31T16:22:02.168Z,11.46
2022-12-31T16:24:37.491Z,11.45
2022-12-31T16:27:18.216Z,11.48
2022-12-31T16:29:55.938Z,11.51
2022-12-31T16:32:27.866Z,11.56
2022-12-31T16:34:59.446Z,11.59
2022-12-31T16:37:31.113Z,11.63
2022-12-31T16:40:21.749Z,11.70
2022-12-31T16:42:53.558Z,11.76
2022-12-31T16:45:36.737Z,11.76
2022-12-31T16:48:18.649Z,11.77
2022-12-31T16:50:54.146Z,11.82
2022-12-31T16:53:29.818Z,11.88
2022-12-31T16:56:04.375Z,11.92
2022-12-31T16:58:38.660Z,11.94
2022-12-31T17:01:17.946Z,11.92
2022-12-31T17:03:53.073Z,11.89
2022-12-31T17:06:25.704Z,11.86
2022-12-31T17:09:13.916Z,11.87
2022-12-31T17:11:52.936Z,11.87
2022-12-31T17:14:26.623Z,11.87
2022-12-31T17:17:02.713Z,11.86
2022-12-31T17:19:38.813Z,11.85
2022-12-31T17:22:16.525Z,11.81
2022-12-31T17:24:51.050Z,11.77
2022-12-31T17:27:22.837Z,11.71
2022-12-31T17:29:54.698Z,11.68
2022-12-31T17:32:37.197Z,11.70
2022-12-31T17:35:30.416Z,11.72
2022-12-31T17:38:33.068Z,11.74
2022-12-31T17:41:25.614Z,11.78
2022-12-31T17:43:58.361Z,11.75
2022-12-31T17:46:30.289Z,11.70
2022-12-31T17:49:03.708Z,11.67
2022-12-31T17:51:35.328Z,11.62
2022-12-31T17:54:13.308Z,11.56
2022-12-31T17:56:45.552Z,11.49
2022-12-31T17:59:19.277Z,11.48
2022-12-31T18:01:49.750Z,11.48
2022-12-31T18:04:21.716Z,11.48
2022-12-31T18:06:53.327Z,11.51
2022-12-31T18:09:25.041Z,11.52
2022-12-31T18:12:01.368Z,11.53
2022-12-31T18:14:33.361Z,11.50
2022-12-31T18:17:06.998Z,11.50
2022-12-31T18:20:03.694Z,11.55
2022-12-31T18:22:30.920Z,11.54
2022-12-31T18:25:04.484Z,11.51
2022-12-31T18:27:36.614Z,11.50
2022-12-31T18:30:10.484Z,11.51
2022-12-31T18:32:44.046Z,11.55
2022-12-31T18:35:40.688Z,11.57
2022-12-31T18:38:14.877Z,11.58
2022-12-31T18:40:51.880Z,11.58
2022-12-31T18:43:25.111Z,11.61
2022-12-31T18:45:56.965Z,11.60
2022-12-31T18:48:28.821Z,11.63
2022-12-31T18:51:00.422Z,11.65
2022-12-31T18:53:32.034Z,11.68
2022-12-31T18:56:03.591Z,11.69
2022-12-31T18:58:35.466Z,11.69
2022-12-31T19:01:10.887Z,11.70
2022-12-31T19:03:42.600Z,11.72
2022-12-31T19:06:14.209Z,11.73
2022-12-31T19:08:45.798Z,11.73
2022-12-31T19:11:17.857Z,11.68
2022-12-31T19:13:51.106Z,11.66
2022-12-31T19:16:22.849Z,11.67
2022-12-31T19:18:54.484Z,11.68
2022-12-31T19:21:26.086Z,11.69
2022-12-31T19:23:57.663Z,11.73
2022-12-31T19:26:29.803Z,11.78
2022-12-31T19:29:01.386Z,11.78
2022-12-31T19:31:33.116Z,11.78
2022-12-31T19:34:04.857Z,11.79
2022-12-31T19:36:43.545Z,11.80
2022-12-31T19:39:18.984Z,11.81
2022-12-31T19:41:58.572Z,11.83
2022-12-31T19:44:30.953Z,11.79
2022-12-31T19:47:02.779Z,11.73
2022-12-31T19:49:34.716Z,11.73
2022-12-31T19:52:06.793Z,11.74
2022-12-31T19:54:38.389Z,11.76
2022-12-31T19:57:10.025Z,11.82
2022-12-31T19:59:41.756Z,11.85
2022-12-31T20:02:13.654Z,11.87
2022-12-31T20:04:46.257Z,11.89
2022-12-31T20:07:23.571Z,11.92
2022-12-31T20:09:58.622Z,11.92
2022-12-31T20:12:30.966Z,11.88
2022-12-31T20:15:02.616Z,11.84
2022-12-31T20:17:34.865Z,11.81
2022-12-31T20:20:08.139Z,11.84
2022-12-31T20:22:39.763Z,11.87
2022-12-31T20:25:12.133Z,11.92
2022-12-31T20:27:43.728Z,11.99
2022-12-31T20:30:16.696Z,12.00
2022-12-31T20:32:48.378Z,11.99
2022-12-31T20:35:20.234Z,11.99
2022-12-31T20:37:51.850Z,11.99
2022-12-31T20:40:23.504Z,11.94
2022-12-31T20:42:55.232Z,11.88
2022-12-31T20:45:26.879Z,11.87
2022-12-31T20:47:58.644Z,11.89
2022-12-31T20:50:30.328Z,11.86
2022-12-31T20:53:02.036Z,11.87
2022-12-31T20:55:38.003Z,11.90
2022-12-31T20:58:09.631Z,11.91
2022-12-31T21:00:41.316Z,11.98
2022-12-31T21:03:36.941Z,11.95
2022-12-31T21:06:04.799Z,11.90
2022-12-31T21:08:37.083Z,11.92
2022-12-31T21:11:29.735Z,11.91
2022-12-31T21:14:02.859Z,11.91
2022-12-31T21:16:34.494Z,11.87
2022-12-31T21:19:06.501Z,11.83
2022-12-31T21:21:38.795Z,11.80
2022-12-31T21:24:11.361Z,11.80
2022-12-31T21:26:42.924Z,11.78
2022-12-31T21:29:14.707Z,11.80
2022-12-31T21:31:46.353Z,11.76
2022-12-31T21:34:17.949Z,11.71
2022-12-31T21:36:49.600Z,11.70
2022-12-31T21:39:21.181Z,11.68
2022-12-31T21:41:53.048Z,11.67
2022-12-31T21:44:26.497Z,11.65
2022-12-31T21:47:42.545Z,11.62
2022-12-31T21:50:13.661Z,11.58
2022-12-31T21:52:45.250Z,11.55
2022-12-31T21:55:39.795Z,11.52
2022-12-31T21:58:28.101Z,11.46
2022-12-31T22:01:19.428Z,11.40
2022-12-31T22:03:51.356Z,11.43
2022-12-31T22:06:24.361Z,11.42
2022-12-31T22:08:57.154Z,11.40
2022-12-31T22:11:29.840Z,11.39
2022-12-31T22:14:01.482Z,11.38
2022-12-31T22:16:33.147Z,11.37
2022-12-31T22:19:04.826Z,11.38
2022-12-31T22:21:36.385Z,11.37
2022-12-31T22:24:09.436Z,11.33
2022-12-31T22:26:46.540Z,11.28
2022-12-31T22:29:19.715Z,11.23
2022-12-31T22:31:52.264Z,11.15
2022-12-31T22:34:26.628Z,11.11
2022-12-31T22:36:58.857Z,11.12
2022-12-31T22:39:43.369Z,11.08
2022-12-31T22:42:16.253Z,11.03
2022-12-31T22:44:48.049Z,10.99
2022-12-31T22:47:19.691Z,10.94
2022-12-31T22:49:51.381Z,10.92
2022-12-31T22:52:23.054Z,10.89
2022-12-31T22:54:54.837Z,10.90
2022-12-31T22:57:26.495Z,10.87
2022-12-31T22:59:58.279Z,10.84
2022-12-31T23:02:30.042Z,10.81
2022-12-31T23:05:15.490Z,10.75
2022-12-31T23:07:48.000Z,10.68
2022-12-31T23:10:37.530Z,10.60
2022-12-31T23:13:26.820Z,10.51
2022-12-31T23:16:16.178Z,10.42
2022-12-31T23:19:05.732Z,10.31
2022-12-31T23:21:55.623Z,10.22
2022-12-31T23:24:28.829Z,10.14
2022-12-31T23:27:00.511Z,10.09
2022-12-31T23:29:32.130Z,10.06
2022-12-31T23:32:03.839Z,10.04
2022-12-31T23:34:36.087Z,10.04
2022-12-31T23:37:07.896Z,10.05
2022-12-31T23:39:39.511Z,10.05
2022-12-31T23:42:11.417Z,10.04
2022-12-31T23:44:43.068Z,10.06
2022-12-31T23:47:14.795Z,10.13
2022-12-31T23:49:46.384Z,10.20
2022-12-31T23:52:17.950Z,10.25
2022-12-31T23:54:49.539Z,10.31
2022-12-31T23:57:22.713Z,10.31
2022-12-31T23:59:54.333Z,10.31
